createdAt,value
2018-09-24T00:00:28.093Z,0
2018-09-24T00:01:37.788Z,0
2018-09-24T00:02:47.732Z,0
2018-09-24T00:03:57.668Z,0
2018-09-24T00:05:07.620Z,0
2018-09-24T00:06:17.318Z,0
2018-09-24T00:07:27.256Z,0
2018-09-24T00:08:37.198Z,0
2018-09-24T00:09:46.894Z,0
2018-09-24T00:10:56.843Z,0
2018-09-24T00:12:06.798Z,0
2018-09-24T00:13:16.753Z,0
2018-09-24T00:14:26.698Z,0
2018-09-24T00:15:36.634Z,0
2018-09-24T00:16:46.588Z,0
2018-09-24T00:17:56.533Z,0
2018-09-24T00:19:05.984Z,0
2018-09-24T00:20:15.920Z,0
2018-09-24T00:21:25.930Z,0
2018-09-24T00:22:35.371Z,0
2018-09-24T00:23:45.318Z,0
2018-09-24T00:24:55.264Z,0
2018-09-24T00:26:05.212Z,0
2018-09-24T00:27:15.153Z,0
2018-09-24T00:28:25.099Z,0
2018-09-24T00:29:35.057Z,0
2018-09-24T00:30:45.007Z,0
2018-09-24T00:31:54.973Z,0
2018-09-24T00:33:04.654Z,0
2018-09-24T00:34:14.649Z,0
2018-09-24T00:35:24.342Z,0
2018-09-24T00:36:34.265Z,0
2018-09-24T00:37:44.232Z,0
2018-09-24T00:38:54.183Z,0
2018-09-24T00:40:04.150Z,0
2018-09-24T00:41:14.102Z,0
2018-09-24T00:42:23.895Z,0
2018-09-24T00:43:33.981Z,0
2018-09-24T00:44:43.671Z,0
2018-09-24T00:45:53.606Z,0
2018-09-24T00:47:03.546Z,0
2018-09-24T00:48:13.477Z,0
2018-09-24T00:49:23.182Z,0
2018-09-24T00:50:33.129Z,0
2018-09-24T00:51:42.820Z,0
2018-09-24T00:52:52.757Z,0
2018-09-24T00:54:02.702Z,0
2018-09-24T00:55:12.131Z,0
2018-09-24T00:56:22.077Z,0
2018-09-24T00:57:32.031Z,0
2018-09-24T00:58:41.975Z,0
2018-09-24T00:59:51.414Z,0
2018-09-24T01:01:01.669Z,0
2018-09-24T01:02:11.360Z,0
2018-09-24T01:03:21.303Z,0
2018-09-24T01:04:31.002Z,0
2018-09-24T01:05:40.948Z,0
2018-09-24T01:06:50.877Z,0
2018-09-24T01:08:00.563Z,0
2018-09-24T01:09:10.529Z,0
2018-09-24T01:10:20.468Z,0
2018-09-24T01:11:30.414Z,0
2018-09-24T01:12:40.339Z,0
2018-09-24T01:13:50.507Z,0
2018-09-24T01:15:00.186Z,0
2018-09-24T01:16:10.124Z,0
2018-09-24T01:17:20.074Z,0
2018-09-24T01:18:30.031Z,0
2018-09-24T01:19:39.962Z,0
2018-09-24T01:20:49.894Z,0
2018-09-24T01:21:59.836Z,0
2018-09-24T01:23:09.790Z,0
2018-09-24T01:24:19.216Z,0
2018-09-24T01:25:28.898Z,0
2018-09-24T01:26:38.826Z,0
2018-09-24T01:27:48.766Z,0
2018-09-24T01:28:58.723Z,0
2018-09-24T01:30:08.410Z,0
2018-09-24T01:31:18.362Z,0
2018-09-24T01:32:28.050Z,0
2018-09-24T01:33:38.046Z,0
2018-09-24T01:34:47.750Z,0
2018-09-24T01:35:57.695Z,0
2018-09-24T01:37:07.790Z,0
2018-09-24T01:38:17.730Z,0
2018-09-24T01:39:27.680Z,0
2018-09-24T01:40:37.634Z,0
2018-09-24T01:41:47.060Z,0
2018-09-24T01:42:56.999Z,0
2018-09-24T01:44:06.938Z,0
2018-09-24T01:45:16.634Z,0
2018-09-24T01:46:26.570Z,0
2018-09-24T01:47:36.540Z,0
2018-09-24T01:48:46.230Z,0
2018-09-24T01:49:56.158Z,0
2018-09-24T01:51:06.106Z,0
2018-09-24T01:52:15.790Z,0
2018-09-24T01:53:25.480Z,0
2018-09-24T01:54:35.429Z,0
2018-09-24T01:55:45.118Z,0
2018-09-24T01:56:55.082Z,0
2018-09-24T01:58:05.046Z,0
2018-09-24T01:59:15.006Z,0
2018-09-24T02:00:24.953Z,0
2018-09-24T02:01:34.893Z,0
2018-09-24T02:02:44.839Z,0
2018-09-24T02:03:54.768Z,0
2018-09-24T02:05:04.454Z,0
2018-09-24T02:06:14.398Z,0
2018-09-24T02:07:24.084Z,0
2018-09-24T02:08:34.100Z,0
2018-09-24T02:09:44.042Z,0
2018-09-24T02:10:53.987Z,0
2018-09-24T02:12:03.942Z,0
2018-09-24T02:13:13.876Z,0
2018-09-24T02:14:23.825Z,0
2018-09-24T02:15:33.492Z,0
2018-09-24T02:16:43.169Z,0
2018-09-24T02:17:53.117Z,0
2018-09-24T02:19:03.064Z,0
2018-09-24T02:20:12.734Z,0
2018-09-24T02:21:22.672Z,0
2018-09-24T02:22:32.625Z,0
2018-09-24T02:23:42.576Z,0
2018-09-24T02:24:52.521Z,0
2018-09-24T02:26:02.214Z,0
2018-09-24T02:27:12.168Z,0
2018-09-24T02:28:21.848Z,0
2018-09-24T02:29:31.276Z,0
2018-09-24T02:30:40.989Z,0
2018-09-24T02:31:50.962Z,0
2018-09-24T02:33:00.652Z,0
2018-09-24T02:34:10.608Z,0
2018-09-24T02:35:20.566Z,0
2018-09-24T02:36:30.256Z,0
2018-09-24T02:37:39.686Z,0
2018-09-24T02:38:49.636Z,0
2018-09-24T02:39:59.585Z,0
2018-09-24T02:41:09.529Z,0
2018-09-24T02:42:19.468Z,0
2018-09-24T02:43:29.426Z,0
2018-09-24T02:44:39.105Z,0
2018-09-24T02:45:48.795Z,0
2018-09-24T02:46:58.744Z,0
2018-09-24T02:48:08.700Z,0
2018-09-24T02:49:18.133Z,0
2018-09-24T02:50:27.822Z,0
2018-09-24T02:51:37.258Z,0
2018-09-24T02:52:46.689Z,0
2018-09-24T02:53:56.375Z,0
2018-09-24T02:55:06.319Z,0
2018-09-24T02:56:16.264Z,0
2018-09-24T02:57:25.696Z,0
2018-09-24T02:58:35.382Z,0
2018-09-24T02:59:45.351Z,0
2018-09-24T03:00:55.305Z,0
2018-09-24T03:02:05.254Z,0
2018-09-24T03:03:15.207Z,0
2018-09-24T03:04:25.157Z,0
2018-09-24T03:05:35.100Z,0
2018-09-24T03:06:45.040Z,0
2018-09-24T03:07:54.986Z,0
2018-09-24T03:09:04.931Z,0
2018-09-24T03:10:14.871Z,0
2018-09-24T03:11:24.575Z,0
2018-09-24T03:12:34.261Z,0
2018-09-24T03:13:44.203Z,0
2018-09-24T03:14:54.154Z,0
2018-09-24T03:16:04.095Z,0
2018-09-24T03:17:14.046Z,0
2018-09-24T03:18:24.003Z,0
2018-09-24T03:19:33.688Z,0
2018-09-24T03:20:43.640Z,0
2018-09-24T03:21:53.594Z,0
2018-09-24T03:23:03.296Z,0
2018-09-24T03:24:13.260Z,0
2018-09-24T03:25:22.947Z,0
2018-09-24T03:26:33.496Z,0
2018-09-24T03:27:43.446Z,0
2018-09-24T03:28:53.431Z,0
2018-09-24T03:30:03.397Z,0
2018-09-24T03:31:12.833Z,0
2018-09-24T03:32:22.778Z,0
2018-09-24T03:33:32.732Z,0
2018-09-24T03:34:42.684Z,0
2018-09-24T03:35:52.642Z,0
2018-09-24T03:37:02.342Z,0
2018-09-24T03:38:12.289Z,0
2018-09-24T03:39:22.248Z,0
2018-09-24T03:40:32.206Z,0
2018-09-24T03:41:41.953Z,0
2018-09-24T03:42:51.646Z,0
2018-09-24T03:44:01.588Z,0
2018-09-24T03:45:11.567Z,0
2018-09-24T03:46:21.529Z,0
2018-09-24T03:47:31.471Z,0
2018-09-24T03:48:41.438Z,0
2018-09-24T03:49:51.148Z,0
2018-09-24T03:51:01.094Z,0
2018-09-24T03:52:11.034Z,0
2018-09-24T03:53:20.974Z,0
2018-09-24T03:54:30.647Z,0
2018-09-24T03:55:40.330Z,0
2018-09-24T03:56:50.279Z,0
2018-09-24T03:58:00.233Z,0
2018-09-24T03:59:10.665Z,0
2018-09-24T04:00:20.631Z,0
2018-09-24T04:01:30.307Z,0
2018-09-24T04:02:40.238Z,0
2018-09-24T04:03:49.657Z,0
2018-09-24T04:04:59.612Z,0
2018-09-24T04:06:09.574Z,0
2018-09-24T04:07:19.528Z,0
2018-09-24T04:08:29.251Z,0
2018-09-24T04:09:39.465Z,0
2018-09-24T04:10:49.459Z,0
2018-09-24T04:11:59.467Z,0
2018-09-24T04:13:09.412Z,0
2018-09-24T04:14:19.112Z,0
2018-09-24T04:15:29.061Z,0
2018-09-24T04:16:38.740Z,0
2018-09-24T04:17:48.689Z,0
2018-09-24T04:18:58.647Z,0
2018-09-24T04:20:08.369Z,0
2018-09-24T04:21:18.330Z,0
2018-09-24T04:22:28.022Z,0
2018-09-24T04:23:37.971Z,0
2018-09-24T04:24:47.936Z,0
2018-09-24T04:25:57.887Z,0
2018-09-24T04:27:07.841Z,0
2018-09-24T04:28:17.534Z,0
2018-09-24T04:29:27.510Z,0
2018-09-24T04:30:37.457Z,0
2018-09-24T04:31:47.402Z,0
2018-09-24T04:32:57.369Z,0
2018-09-24T04:34:07.327Z,0
2018-09-24T04:35:17.018Z,0
2018-09-24T04:36:26.976Z,0
2018-09-24T04:37:36.936Z,0
2018-09-24T04:38:46.916Z,0
2018-09-24T04:39:56.882Z,0
2018-09-24T04:41:06.894Z,0
2018-09-24T04:42:16.855Z,0
2018-09-24T04:43:26.815Z,0
2018-09-24T04:44:36.769Z,0
2018-09-24T04:45:46.732Z,5
2018-09-24T04:46:56.690Z,5
2018-09-24T04:48:06.644Z,5
2018-09-24T04:49:17.027Z,5
2018-09-24T04:50:27.063Z,5
2018-09-24T04:51:37.015Z,10
2018-09-24T04:52:46.973Z,10
2018-09-24T04:53:56.947Z,10
2018-09-24T04:55:06.915Z,15
2018-09-24T04:56:16.893Z,15
2018-09-24T04:57:26.864Z,15
2018-09-24T04:58:36.595Z,20
2018-09-24T04:59:46.601Z,20
2018-09-24T05:00:56.301Z,25
2018-09-24T05:02:06.272Z,25
2018-09-24T05:03:16.238Z,25
2018-09-24T05:04:25.919Z,30
2018-09-24T05:05:35.890Z,30
2018-09-24T05:06:45.845Z,35
2018-09-24T05:07:55.782Z,35
2018-09-24T05:09:05.462Z,40
2018-09-24T05:10:15.730Z,45
2018-09-24T05:11:25.755Z,45
2018-09-24T05:12:35.709Z,50
2018-09-24T05:13:45.655Z,50
2018-09-24T05:14:55.607Z,55
2018-09-24T05:16:05.557Z,60
2018-09-24T05:17:15.713Z,60
2018-09-24T05:18:25.663Z,65
2018-09-24T05:19:35.597Z,65
2018-09-24T05:20:45.286Z,70
2018-09-24T05:21:55.241Z,70
2018-09-24T05:23:05.205Z,75
2018-09-24T05:24:15.150Z,80
2018-09-24T05:25:25.110Z,80
2018-09-24T05:26:35.067Z,85
2018-09-24T05:27:44.767Z,85
2018-09-24T05:28:54.709Z,90
2018-09-24T05:30:04.417Z,90
2018-09-24T05:31:14.108Z,95
2018-09-24T05:32:24.523Z,95
2018-09-24T05:33:34.266Z,95
2018-09-24T05:34:44.200Z,100
2018-09-24T05:35:53.896Z,105
2018-09-24T05:37:03.861Z,110
2018-09-24T05:38:13.877Z,110
2018-09-24T05:39:23.832Z,115
2018-09-24T05:40:33.808Z,120
2018-09-24T05:41:43.779Z,115
2018-09-24T05:42:53.795Z,120
2018-09-24T05:44:03.239Z,120
2018-09-24T05:45:12.947Z,120
2018-09-24T05:46:22.933Z,125
2018-09-24T05:47:32.886Z,125
2018-09-24T05:48:42.915Z,150
2018-09-24T05:49:52.854Z,135
2018-09-24T05:51:02.565Z,130
2018-09-24T05:52:12.531Z,135
2018-09-24T05:53:22.213Z,140
2018-09-24T05:54:32.252Z,140
2018-09-24T05:55:41.933Z,145
2018-09-24T05:56:51.898Z,145
2018-09-24T05:58:01.850Z,145
2018-09-24T05:59:11.826Z,150
2018-09-24T06:00:21.522Z,165
2018-09-24T06:01:31.232Z,160
2018-09-24T06:02:40.663Z,155
2018-09-24T06:03:50.646Z,160
2018-09-24T06:05:00.602Z,165
2018-09-24T06:06:10.313Z,165
2018-09-24T06:07:20.279Z,165
2018-09-24T06:08:30.229Z,165
2018-09-24T06:09:40.186Z,170
2018-09-24T06:10:49.878Z,175
2018-09-24T06:11:59.843Z,175
2018-09-24T06:13:09.791Z,175
2018-09-24T06:14:19.735Z,175
2018-09-24T06:15:29.411Z,180
2018-09-24T06:16:39.122Z,180
2018-09-24T06:17:49.069Z,190
2018-09-24T06:18:58.669Z,185
2018-09-24T06:20:08.729Z,190
2018-09-24T06:21:18.730Z,190
2018-09-24T06:22:28.700Z,195
2018-09-24T06:23:38.665Z,200
2018-09-24T06:24:48.632Z,200
2018-09-24T06:25:58.606Z,205
2018-09-24T06:27:08.563Z,210
2018-09-24T06:28:18.656Z,205
2018-09-24T06:29:28.629Z,220
2018-09-24T06:30:38.591Z,240
2018-09-24T06:31:48.554Z,215
2018-09-24T06:32:58.503Z,200
2018-09-24T06:34:08.530Z,220
2018-09-24T06:35:18.501Z,225
2018-09-24T06:36:28.458Z,215
2018-09-24T06:37:38.153Z,215
2018-09-24T06:38:48.109Z,215
2018-09-24T06:39:58.083Z,220
2018-09-24T06:41:08.311Z,220
2018-09-24T06:42:18.331Z,220
2018-09-24T06:43:28.034Z,220
2018-09-24T06:44:38.066Z,230
2018-09-24T06:45:47.761Z,230
2018-09-24T06:46:57.721Z,240
2018-09-24T06:48:07.395Z,235
2018-09-24T06:49:17.338Z,230
2018-09-24T06:50:27.364Z,230
2018-09-24T06:51:37.066Z,235
2018-09-24T06:52:47.039Z,235
2018-09-24T06:53:56.749Z,245
2018-09-24T06:55:06.723Z,240
2018-09-24T06:56:15.888Z,240
2018-09-24T06:57:25.872Z,245
2018-09-24T06:58:35.898Z,250
2018-09-24T06:59:46.279Z,250
2018-09-24T07:00:56.261Z,260
2018-09-24T07:02:06.227Z,300
2018-09-24T07:03:15.921Z,275
2018-09-24T07:04:25.899Z,250
2018-09-24T07:05:36.062Z,255
2018-09-24T07:06:46.016Z,260
2018-09-24T07:07:55.990Z,265
2018-09-24T07:09:05.927Z,285
2018-09-24T07:10:15.880Z,340
2018-09-24T07:11:25.925Z,355
2018-09-24T07:12:35.574Z,295
2018-09-24T07:13:45.271Z,315
2018-09-24T07:14:55.285Z,275
2018-09-24T07:16:04.985Z,265
2018-09-24T07:17:14.731Z,305
2018-09-24T07:18:24.714Z,355
2018-09-24T07:19:34.404Z,305
2018-09-24T07:20:44.107Z,300
2018-09-24T07:21:54.068Z,315
2018-09-24T07:23:03.804Z,365
2018-09-24T07:24:13.516Z,305
2018-09-24T07:25:23.468Z,335
2018-09-24T07:26:33.179Z,300
2018-09-24T07:27:43.431Z,300
2018-09-24T07:28:53.460Z,310
2018-09-24T07:30:03.424Z,320
2018-09-24T07:31:13.454Z,295
2018-09-24T07:32:23.418Z,305
2018-09-24T07:33:33.571Z,340
2018-09-24T07:34:43.260Z,415
2018-09-24T07:35:53.217Z,360
2018-09-24T07:37:03.201Z,435
2018-09-24T07:38:13.165Z,360
2018-09-24T07:39:23.157Z,385
2018-09-24T07:40:33.123Z,355
2018-09-24T07:41:43.094Z,355
2018-09-24T07:42:52.821Z,410
2018-09-24T07:44:02.836Z,395
2018-09-24T07:45:12.834Z,325
2018-09-24T07:46:22.793Z,340
2018-09-24T07:47:32.829Z,325
2018-09-24T07:48:42.837Z,290
2018-09-24T07:49:52.550Z,315
2018-09-24T07:51:02.261Z,245
2018-09-24T07:52:11.424Z,270
2018-09-24T07:53:21.377Z,340
2018-09-24T07:54:31.345Z,415
2018-09-24T07:55:41.897Z,450
2018-09-24T07:56:51.892Z,470
2018-09-24T07:58:01.636Z,375
2018-09-24T07:59:11.338Z,370
2018-09-24T08:00:21.303Z,385
2018-09-24T08:01:31.264Z,475
2018-09-24T08:02:40.972Z,655
2018-09-24T08:03:50.952Z,815
2018-09-24T08:05:00.907Z,535
2018-09-24T08:06:10.617Z,445
2018-09-24T08:07:20.765Z,595
2018-09-24T08:08:30.746Z,375
2018-09-24T08:09:40.696Z,485
2018-09-24T08:10:50.655Z,535
2018-09-24T08:12:00.619Z,820
2018-09-24T08:13:11.002Z,825
2018-09-24T08:14:20.971Z,930
2018-09-24T08:15:30.926Z,485
2018-09-24T08:16:40.865Z,485
2018-09-24T08:17:50.815Z,440
2018-09-24T08:19:00.518Z,345
2018-09-24T08:20:10.524Z,440
2018-09-24T08:21:20.811Z,855
2018-09-24T08:22:30.778Z,835
2018-09-24T08:23:40.727Z,1025
2018-09-24T08:24:50.698Z,695
2018-09-24T08:26:00.662Z,575
2018-09-24T08:27:10.633Z,940
2018-09-24T08:28:20.348Z,440
2018-09-24T08:29:30.044Z,1045
2018-09-24T08:30:40.001Z,665
2018-09-24T08:31:49.956Z,495
2018-09-24T08:32:59.665Z,425
2018-09-24T08:34:09.382Z,385
2018-09-24T08:35:19.575Z,740
2018-09-24T08:36:29.861Z,1160
2018-09-24T08:37:39.835Z,1290
2018-09-24T08:38:49.805Z,840
2018-09-24T08:39:59.771Z,410
2018-09-24T08:41:09.529Z,365
2018-09-24T08:42:19.491Z,395
2018-09-24T08:43:29.194Z,505
2018-09-24T08:44:39.185Z,975
2018-09-24T08:45:49.155Z,615
2018-09-24T08:46:59.108Z,1070
2018-09-24T08:48:08.812Z,475
2018-09-24T08:49:18.768Z,465
2018-09-24T08:50:28.211Z,470
2018-09-24T08:51:37.913Z,885
2018-09-24T08:52:47.889Z,615
2018-09-24T08:53:57.863Z,1440
2018-09-24T08:55:07.598Z,605
2018-09-24T08:56:17.557Z,815
2018-09-24T08:57:27.944Z,1605
2018-09-24T08:58:37.910Z,1690
2018-09-24T08:59:47.906Z,1615
2018-09-24T09:00:57.869Z,590
2018-09-24T09:02:07.819Z,670
2018-09-24T09:03:17.538Z,635
2018-09-24T09:04:27.500Z,540
2018-09-24T09:05:37.721Z,595
2018-09-24T09:06:47.683Z,600
2018-09-24T09:07:57.402Z,580
2018-09-24T09:09:07.124Z,500
2018-09-24T09:10:17.155Z,560
2018-09-24T09:11:27.141Z,925
2018-09-24T09:12:36.846Z,505
2018-09-24T09:13:46.847Z,595
2018-09-24T09:14:56.515Z,680
2018-09-24T09:16:06.480Z,625
2018-09-24T09:17:16.425Z,650
2018-09-24T09:18:26.386Z,1035
2018-09-24T09:19:36.343Z,670
2018-09-24T09:20:46.301Z,635
2018-09-24T09:21:56.264Z,680
2018-09-24T09:23:06.439Z,800
2018-09-24T09:24:16.669Z,710
2018-09-24T09:25:26.672Z,725
2018-09-24T09:26:36.640Z,1080
2018-09-24T09:27:46.594Z,645
2018-09-24T09:28:56.557Z,665
2018-09-24T09:30:06.521Z,2030
2018-09-24T09:31:16.535Z,880
2018-09-24T09:32:26.494Z,900
2018-09-24T09:33:36.177Z,765
2018-09-24T09:34:46.156Z,2205
2018-09-24T09:35:55.354Z,740
2018-09-24T09:37:05.413Z,575
2018-09-24T09:38:15.408Z,555
2018-09-24T09:39:24.861Z,670
2018-09-24T09:40:34.334Z,810
2018-09-24T09:41:44.310Z,550
2018-09-24T09:42:54.275Z,600
2018-09-24T09:44:04.263Z,700
2018-09-24T09:45:14.222Z,1485
2018-09-24T09:46:24.192Z,900
2018-09-24T09:47:34.170Z,750
2018-09-24T09:48:43.888Z,620
2018-09-24T09:49:53.598Z,530
2018-09-24T09:51:03.337Z,660
2018-09-24T09:52:13.045Z,1175
2018-09-24T09:53:22.761Z,690
2018-09-24T09:54:32.485Z,635
2018-09-24T09:55:42.455Z,635
2018-09-24T09:56:52.405Z,815
2018-09-24T09:58:02.364Z,2020
2018-09-24T09:59:12.648Z,620
2018-09-24T10:00:22.374Z,740
2018-09-24T10:01:32.332Z,920
2018-09-24T10:02:42.308Z,990
2018-09-24T10:03:52.284Z,610
2018-09-24T10:05:02.428Z,595
2018-09-24T10:06:12.411Z,550
2018-09-24T10:07:22.352Z,495
2018-09-24T10:08:32.323Z,585
2018-09-24T10:09:42.268Z,600
2018-09-24T10:10:52.266Z,450
2018-09-24T10:12:02.231Z,480
2018-09-24T10:13:12.194Z,635
2018-09-24T10:14:22.187Z,1375
2018-09-24T10:15:31.635Z,1240
2018-09-24T10:16:41.601Z,2250
2018-09-24T10:17:51.305Z,2240
2018-09-24T10:19:00.742Z,670
2018-09-24T10:20:10.712Z,780
2018-09-24T10:21:20.672Z,2070
2018-09-24T10:22:30.444Z,830
2018-09-24T10:23:39.889Z,935
2018-09-24T10:24:49.600Z,685
2018-09-24T10:25:59.331Z,640
2018-09-24T10:27:09.283Z,910
2018-09-24T10:28:19.245Z,860
2018-09-24T10:29:29.196Z,675
2018-09-24T10:30:38.889Z,780
2018-09-24T10:31:48.589Z,2575
2018-09-24T10:32:58.548Z,815
2018-09-24T10:34:08.509Z,570
2018-09-24T10:35:18.244Z,455
2018-09-24T10:36:27.940Z,470
2018-09-24T10:37:37.901Z,570
2018-09-24T10:38:47.919Z,2570
2018-09-24T10:39:57.352Z,2705
2018-09-24T10:41:06.789Z,910
2018-09-24T10:42:16.507Z,790
2018-09-24T10:43:26.512Z,980
2018-09-24T10:44:36.480Z,595
2018-09-24T10:45:46.389Z,525
2018-09-24T10:46:56.091Z,510
2018-09-24T10:48:06.074Z,550
2018-09-24T10:49:16.041Z,750
2018-09-24T10:50:26.252Z,2635
2018-09-24T10:51:36.275Z,1445
2018-09-24T10:52:46.244Z,600
2018-09-24T10:53:56.279Z,680
2018-09-24T10:55:06.569Z,2485
2018-09-24T10:56:16.580Z,2650
2018-09-24T10:57:26.293Z,905
2018-09-24T10:58:35.981Z,2640
2018-09-24T10:59:46.262Z,2640
2018-09-24T11:00:56.399Z,2465
2018-09-24T11:02:06.152Z,2595
2018-09-24T11:03:16.128Z,2785
2018-09-24T11:04:25.835Z,2775
2018-09-24T11:05:35.803Z,2820
2018-09-24T11:06:45.756Z,2795
2018-09-24T11:07:55.706Z,2735
2018-09-24T11:09:05.674Z,2725
2018-09-24T11:10:15.810Z,660
2018-09-24T11:11:25.584Z,2790
2018-09-24T11:12:35.547Z,2855
2018-09-24T11:13:45.523Z,2975
2018-09-24T11:14:55.230Z,1475
2018-09-24T11:16:05.922Z,2755
2018-09-24T11:17:18.188Z,2780
2018-09-24T11:18:28.317Z,3000
2018-09-24T11:19:38.401Z,3090
2018-09-24T11:20:48.368Z,720
2018-09-24T11:21:58.059Z,685
2018-09-24T11:23:07.599Z,805
2018-09-24T11:24:17.618Z,715
2018-09-24T11:25:27.613Z,650
2018-09-24T11:26:37.622Z,785
2018-09-24T11:27:47.057Z,755
2018-09-24T11:28:57.066Z,2705
2018-09-24T11:30:07.026Z,2720
2018-09-24T11:31:17.022Z,1570
2018-09-24T11:32:26.978Z,2950
2018-09-24T11:33:36.998Z,2880
2018-09-24T11:34:46.982Z,2930
2018-09-24T11:35:56.686Z,700
2018-09-24T11:37:06.627Z,690
2018-09-24T11:38:16.091Z,930
2018-09-24T11:39:26.051Z,965
2018-09-24T11:40:35.826Z,2165
2018-09-24T11:41:45.780Z,885
2018-09-24T11:42:55.761Z,835
2018-09-24T11:44:05.711Z,615
2018-09-24T11:45:15.414Z,485
2018-09-24T11:46:25.483Z,425
2018-09-24T11:47:35.462Z,365
2018-09-24T11:48:45.173Z,310
2018-09-24T11:49:55.129Z,270
2018-09-24T11:51:05.077Z,230
2018-09-24T11:52:15.045Z,190
2018-09-24T11:53:25.235Z,170
2018-09-24T11:54:35.212Z,145
2018-09-24T11:55:45.210Z,120
2018-09-24T11:56:55.153Z,125
2018-09-24T11:58:05.112Z,170
2018-09-24T11:59:15.081Z,220
2018-09-24T12:00:25.054Z,270
2018-09-24T12:01:34.239Z,330
2018-09-24T12:02:44.188Z,395
2018-09-24T12:03:53.891Z,460
2018-09-24T12:05:03.862Z,475
2018-09-24T12:06:13.859Z,445
2018-09-24T12:07:23.556Z,410
2018-09-24T12:08:33.024Z,370
2018-09-24T12:09:42.972Z,310
2018-09-24T12:10:52.918Z,260
2018-09-24T12:12:02.878Z,245
2018-09-24T12:13:12.592Z,240
2018-09-24T12:14:22.542Z,260
2018-09-24T12:15:32.227Z,300
2018-09-24T12:16:41.669Z,345
2018-09-24T12:17:51.616Z,365
2018-09-24T12:19:01.311Z,385
2018-09-24T12:20:11.270Z,435
2018-09-24T12:21:21.358Z,410
2018-09-24T12:22:31.349Z,320
2018-09-24T12:23:41.305Z,295
2018-09-24T12:24:51.007Z,335
2018-09-24T12:26:00.957Z,400
2018-09-24T12:27:10.944Z,405
2018-09-24T12:28:20.645Z,300
2018-09-24T12:29:30.340Z,220
2018-09-24T12:30:40.333Z,170
2018-09-24T12:31:50.289Z,140
2018-09-24T12:33:00.268Z,130
2018-09-24T12:34:09.718Z,125
2018-09-24T12:35:19.660Z,115
2018-09-24T12:36:29.633Z,105
2018-09-24T12:37:39.403Z,110
2018-09-24T12:38:49.362Z,120
2018-09-24T12:39:59.310Z,125
2018-09-24T12:41:09.009Z,125
2018-09-24T12:42:18.962Z,130
2018-09-24T12:43:28.918Z,130
2018-09-24T12:44:38.885Z,135
2018-09-24T12:45:48.833Z,165
2018-09-24T12:46:58.548Z,190
2018-09-24T12:48:08.854Z,170
2018-09-24T12:49:18.830Z,155
2018-09-24T12:50:28.551Z,150
2018-09-24T12:51:38.508Z,155
2018-09-24T12:52:48.725Z,180
2018-09-24T12:53:58.873Z,250
2018-09-24T12:55:08.582Z,330
2018-09-24T12:56:18.537Z,420
2018-09-24T12:57:28.496Z,515
2018-09-24T12:58:38.204Z,610
2018-09-24T12:59:48.147Z,755
2018-09-24T13:00:58.113Z,2415
2018-09-24T13:02:08.064Z,995
2018-09-24T13:03:17.790Z,970
2018-09-24T13:04:27.481Z,960
2018-09-24T13:05:37.467Z,2045
2018-09-24T13:06:47.421Z,965
2018-09-24T13:07:57.385Z,1120
2018-09-24T13:09:07.324Z,3025
2018-09-24T13:10:17.297Z,2905
2018-09-24T13:11:27.285Z,2970
2018-09-24T13:12:36.722Z,3075
2018-09-24T13:13:46.429Z,3015
2018-09-24T13:14:56.361Z,2930
2018-09-24T13:16:06.318Z,3045
2018-09-24T13:17:15.762Z,3055
2018-09-24T13:18:25.458Z,2865
2018-09-24T13:19:35.419Z,2905
2018-09-24T13:20:45.488Z,2980
2018-09-24T13:21:55.465Z,2955
2018-09-24T13:23:04.919Z,2915
2018-09-24T13:24:14.886Z,2925
2018-09-24T13:25:24.847Z,2935
2018-09-24T13:26:34.893Z,1685
2018-09-24T13:27:44.882Z,3230
2018-09-24T13:28:54.625Z,2570
2018-09-24T13:30:04.567Z,1195
2018-09-24T13:31:14.288Z,2210
2018-09-24T13:32:24.000Z,1515
2018-09-24T13:33:33.959Z,3085
2018-09-24T13:34:43.938Z,950
2018-09-24T13:35:53.656Z,3055
2018-09-24T13:37:03.353Z,1240
2018-09-24T13:38:13.051Z,2350
2018-09-24T13:39:22.807Z,530
2018-09-24T13:40:32.776Z,315
2018-09-24T13:41:42.773Z,240
2018-09-24T13:42:52.736Z,210
2018-09-24T13:44:02.699Z,200
2018-09-24T13:45:12.443Z,180
2018-09-24T13:46:22.409Z,160
2018-09-24T13:47:32.112Z,150
2018-09-24T13:48:42.080Z,160
2018-09-24T13:49:52.027Z,185
2018-09-24T13:51:01.466Z,200
2018-09-24T13:52:11.432Z,210
2018-09-24T13:53:21.576Z,235
2018-09-24T13:54:31.640Z,270
2018-09-24T13:55:41.435Z,275
2018-09-24T13:56:51.150Z,280
2018-09-24T13:58:01.104Z,275
2018-09-24T13:59:10.795Z,250
2018-09-24T14:00:20.770Z,255
2018-09-24T14:01:30.234Z,245
2018-09-24T14:02:39.942Z,220
2018-09-24T14:03:49.903Z,205
2018-09-24T14:04:59.857Z,200
2018-09-24T14:06:09.795Z,200
2018-09-24T14:07:19.741Z,205
2018-09-24T14:08:29.710Z,205
2018-09-24T14:09:39.682Z,220
2018-09-24T14:10:49.700Z,705
2018-09-24T14:11:59.355Z,355
2018-09-24T14:13:09.078Z,385
2018-09-24T14:14:18.776Z,2610
2018-09-24T14:15:28.490Z,2590
2018-09-24T14:16:38.178Z,2560
2018-09-24T14:17:48.142Z,2550
2018-09-24T14:18:58.112Z,2545
2018-09-24T14:20:08.082Z,2580
2018-09-24T14:21:18.083Z,2695
2018-09-24T14:22:28.047Z,2775
2018-09-24T14:23:38.010Z,2770
2018-09-24T14:24:47.709Z,2725
2018-09-24T14:25:57.419Z,710
2018-09-24T14:27:07.158Z,2300
2018-09-24T14:28:17.108Z,540
2018-09-24T14:29:27.079Z,250
2018-09-24T14:30:37.041Z,200
2018-09-24T14:31:47.016Z,165
2018-09-24T14:32:56.477Z,140
2018-09-24T14:34:06.096Z,125
2018-09-24T14:35:16.072Z,120
2018-09-24T14:36:26.028Z,125
2018-09-24T14:37:35.983Z,130
2018-09-24T14:38:45.685Z,130
2018-09-24T14:39:55.382Z,145
2018-09-24T14:41:04.827Z,180
2018-09-24T14:42:14.829Z,230
2018-09-24T14:43:24.831Z,250
2018-09-24T14:44:34.791Z,260
2018-09-24T14:45:44.758Z,260
2018-09-24T14:46:54.462Z,270
2018-09-24T14:48:04.412Z,1480
2018-09-24T14:49:14.110Z,1575
2018-09-24T14:50:23.553Z,2290
2018-09-24T14:51:33.503Z,2305
2018-09-24T14:52:43.464Z,2170
2018-09-24T14:53:53.158Z,2220
2018-09-24T14:55:02.844Z,2180
2018-09-24T14:56:12.811Z,2110
2018-09-24T14:57:22.768Z,1900
2018-09-24T14:58:32.483Z,2155
2018-09-24T14:59:41.912Z,2115
2018-09-24T15:00:51.857Z,2070
2018-09-24T15:02:01.555Z,2060
2018-09-24T15:03:11.600Z,1915
2018-09-24T15:04:21.565Z,1855
2018-09-24T15:05:30.745Z,2000
2018-09-24T15:06:40.433Z,2035
2018-09-24T15:07:50.129Z,2005
2018-09-24T15:09:00.080Z,1810
2018-09-24T15:10:10.051Z,1280
2018-09-24T15:11:20.000Z,455
2018-09-24T15:12:29.857Z,380
2018-09-24T15:13:39.808Z,170
2018-09-24T15:14:49.270Z,130
2018-09-24T15:15:59.222Z,160
2018-09-24T15:17:08.925Z,225
2018-09-24T15:18:18.879Z,180
2018-09-24T15:19:28.842Z,190
2018-09-24T15:20:38.812Z,230
2018-09-24T15:21:48.766Z,865
2018-09-24T15:22:58.721Z,290
2018-09-24T15:24:08.420Z,325
2018-09-24T15:25:18.120Z,895
2018-09-24T15:26:27.825Z,430
2018-09-24T15:27:37.777Z,960
2018-09-24T15:28:47.477Z,1005
2018-09-24T15:29:57.428Z,210
2018-09-24T15:31:07.120Z,165
2018-09-24T15:32:16.801Z,180
2018-09-24T15:33:26.505Z,195
2018-09-24T15:34:36.463Z,225
2018-09-24T15:35:46.419Z,245
2018-09-24T15:36:56.122Z,280
2018-09-24T15:38:05.831Z,315
2018-09-24T15:39:15.523Z,365
2018-09-24T15:40:25.256Z,1335
2018-09-24T15:41:34.953Z,1380
2018-09-24T15:42:44.655Z,1300
2018-09-24T15:43:54.099Z,1350
2018-09-24T15:45:04.497Z,1315
2018-09-24T15:46:14.669Z,370
2018-09-24T15:47:24.114Z,335
2018-09-24T15:48:34.070Z,285
2018-09-24T15:49:43.770Z,235
2018-09-24T15:50:53.713Z,195
2018-09-24T15:52:03.670Z,175
2018-09-24T15:53:13.643Z,160
2018-09-24T15:54:23.343Z,155
2018-09-24T15:55:32.793Z,150
2018-09-24T15:56:42.230Z,145
2018-09-24T15:57:52.161Z,165
2018-09-24T15:59:01.577Z,690
2018-09-24T16:00:11.549Z,540
2018-09-24T16:01:21.501Z,300
2018-09-24T16:02:31.476Z,760
2018-09-24T16:03:41.171Z,255
2018-09-24T16:04:50.874Z,145
2018-09-24T16:06:00.820Z,385
2018-09-24T16:07:10.480Z,120
2018-09-24T16:08:20.465Z,220
2018-09-24T16:09:30.159Z,105
2018-09-24T16:10:40.135Z,100
2018-09-24T16:11:50.103Z,95
2018-09-24T16:13:00.062Z,85
2018-09-24T16:14:09.774Z,75
2018-09-24T16:15:19.466Z,65
2018-09-24T16:16:29.415Z,65
2018-09-24T16:17:39.364Z,60
2018-09-24T16:18:48.827Z,60